Girdwood, Alaska
Current Conditions -  °F | °C
As of 10:53 AM on Saturday 25 Oct 2014 (Local Time) from PATO Reporting Station
Overcast Overcast  
Wind Chill: 26°   Ceiling: 3300
Heat Index: 32°   Visibility: 10mi
Dew Point: 32°   Wind: 6mph
Humidity: 100%   Direction: 280°W
Pressure: 29.87"   Gusts: NA
Location:  60.95°N, 149.16°W
Report Text: PATO 251853Z AUTO 28005KT 10SM SCT016 OVC033 00/00 A2987 RMK AO2 SLP115 T00000000 TSNO
Loading
Personal Weather Stations






























Interactive Weather Map
Tropical Storm Tracking
New forecast layout! Learn more

10-Day Weather Forecast

Advertisements
Track Severe Weather on mobile